This is the latest recevied weather packets stored in our database for station/object IN3MWE-10. If no packets are shown the sender has not sent any weather packets the latest 10 day(s).
| Time | Temp. | Humidity | Pressure | Rain* | Wind** | Luminosity | Snow |
|---|---|---|---|---|---|---|---|
| 1788070815 | 20° C | 95% | 981.6 hPa | - | - | - | - |
| 1788069915 | 20° C | 94% | 981.8 hPa | - | - | - | - |
| 1788069015 | 20° C | 92% | 981.7 hPa | - | - | - | - |
| 1788068115 | 19.44° C | 92% | 981.6 hPa | - | - | - | - |
| 1788067215 | 19.44° C | 91% | 981.5 hPa | - | - | - | - |
| 1788066314 | 19.44° C | 93% | 981.4 hPa | - | - | - | - |
| 1788065414 | 19.44° C | 93% | 981.2 hPa | - | - | - | - |
| 1788064514 | 19.44° C | 94% | 981.1 hPa | - | - | - | - |
| 1788063614 | 20° C | 90% | 981 hPa | - | - | - | - |
| 1788062723 | 19.44° C | 90% | 980.9 hPa | - | - | - | - |
| 1788061814 | 20° C | 89% | 980.9 hPa | - | - | - | - |
| 1788060914 | 20° C | 90% | 980.8 hPa | - | - | - | - |
| 1788060014 | 19.44° C | 92% | 980.9 hPa | - | - | - | - |
| 1788059113 | 20° C | 89% | 980.9 hPa | - | - | - | - |
| 1788058226 | 20.56° C | 83% | 980.7 hPa | - | - | - | - |
| 1788057326 | 20.56° C | 82% | 980.7 hPa | - | - | - | - |
| 1788056426 | 21.11° C | 78% | 980.7 hPa | - | - | - | - |
| 1788055526 | 21.11° C | 75% | 980.6 hPa | - | - | - | - |
| 1788054626 | 21.67° C | 74% | 980.6 hPa | - | - | - | - |
| 1788053726 | 21.11° C | 76% | 980.6 hPa | - | - | - | - |
| 1788052825 | 21.11° C | 78% | 980.6 hPa | - | - | - | - |
| 1788051925 | 21.11° C | 79% | 980.4 hPa | - | - | - | - |
| 1788051025 | 21.11° C | 81% | 980.4 hPa | - | - | - | - |
| 1788050125 | 21.11° C | 79% | 980.2 hPa | - | - | - | - |
| 1788049225 | 21.11° C | 81% | 980.2 hPa | - | - | - | - |
* Rain since midnight (hover to see other rain measurements)
** Current wind speed in m/s (hover to see current wind gust speed)